Time;durP1;ratioP1;P1;durP2;ratioP2;P2;SDS_P1;SDS_P2;PMS_P1;PMS_P2;Temp;Humidity;BMP_temperature;BMP_pressure;BME280_temperature;BME280_humidity;BME280_pressure;Samples;Min_cycle;Max_cycle;Signal;HPM_P1;HPM_P2
2022/08/25 00:00:44;;;;;;;16.95;14.18;;;;;;;18.58;99.78;100999.47;4960055;28;20050;-72
2022/08/25 00:03:11;;;;;;;19.13;15.85;;;;;;;18.55;100.00;101010.28;4961118;28;20043;-72
2022/08/25 00:05:36;;;;;;;16.85;15.05;;;;;;;18.50;100.00;101004.19;4964341;28;20482;-73
2022/08/25 00:08:04;;;;;;;17.17;15.13;;;;;;;18.53;99.84;101008.56;4962669;28;20031;-72
2022/08/25 00:10:31;;;;;;;18.85;16.95;;;;;;;18.56;98.95;101000.44;4962650;28;20075;-72
2022/08/25 00:12:58;;;;;;;18.48;16.55;;;;;;;18.59;99.75;101006.56;4960692;28;20046;-72
2022/08/25 00:15:23;;;;;;;21.67;17.98;;;;;;;18.60;99.50;101002.97;4964611;28;20077;-72
2022/08/25 00:17:49;;;;;;;19.40;16.25;;;;;;;18.56;99.22;101001.31;4961933;28;20062;-72
2022/08/25 00:20:15;;;;;;;21.15;18.25;;;;;;;18.56;99.28;100997.78;4963517;28;20081;-72
2022/08/25 00:22:40;;;;;;;28.08;20.25;;;;;;;18.49;99.29;100989.06;4962835;28;20035;-72
2022/08/25 00:25:07;;;;;;;16.40;14.70;;;;;;;18.39;99.12;100993.84;4962215;28;20053;-72
2022/08/25 00:27:32;;;;;;;16.42;13.75;;;;;;;18.39;99.87;100992.94;4964327;28;20039;-73
2022/08/25 00:29:59;;;;;;;22.45;19.20;;;;;;;18.38;99.74;100992.06;4943607;29;20042;-72
2022/08/25 00:32:24;;;;;;;16.58;14.98;;;;;;;18.38;99.65;100992.06;4960372;28;20038;-72
2022/08/25 00:34:49;;;;;;;21.80;15.50;;;;;;;18.36;99.90;100993.91;4962438;28;20039;-72
2022/08/25 00:37:15;;;;;;;17.67;15.77;;;;;;;18.33;99.74;100998.47;4960667;28;20040;-72
2022/08/25 00:39:40;;;;;;;16.60;14.90;;;;;;;18.28;100.00;101001.28;4959940;28;20027;-73
2022/08/25 00:42:07;;;;;;;16.48;14.23;;;;;;;18.26;98.92;100997.81;4961560;28;20038;-72
2022/08/25 00:44:34;;;;;;;16.08;14.48;;;;;;;18.23;99.24;100997.88;4964269;28;20081;-72
2022/08/25 00:47:01;;;;;;;22.73;18.83;;;;;;;18.23;100.00;100997.88;4961731;28;20039;-72
2022/08/25 00:49:40;;;;;;;18.55;16.75;;;;;;;18.24;100.00;100996.97;4962976;28;20485;-72
2022/08/25 00:52:16;;;;;;;13.02;11.63;;;;;;;18.25;100.00;100989.84;4959117;28;20098;-72
2022/08/25 00:54:48;;;;;;;14.18;12.50;;;;;;;18.20;100.00;100992.63;4966457;28;20035;-71
2022/08/25 00:57:17;;;;;;;15.48;12.60;;;;;;;18.15;100.00;100986.56;4944841;28;20070;-72
2022/08/25 00:59:43;;;;;;;15.30;12.63;;;;;;;18.18;100.00;100983.78;4967511;28;20227;-73
2022/08/25 01:02:09;;;;;;;18.17;16.20;;;;;;;18.23;100.00;100978.31;4965867;28;20570;-72
2022/08/25 01:04:34;;;;;;;17.20;14.55;;;;;;;18.24;100.00;100980.94;4966122;28;20079;-72
2022/08/25 01:07:01;;;;;;;19.27;15.98;;;;;;;18.17;100.00;100985.59;4967449;28;20097;-72
2022/08/25 01:09:30;;;;;;;31.75;20.15;;;;;;;18.09;100.00;100987.63;4964650;28;20079;-71
2022/08/25 01:11:55;;;;;;;21.95;18.48;;;;;;;18.06;100.00;100984.19;4961862;28;20074;-72
2022/08/25 01:14:23;;;;;;;29.00;19.85;;;;;;;18.11;100.00;100967.09;4966858;28;20053;-72
2022/08/25 01:16:49;;;;;;;28.05;23.42;;;;;;;18.19;100.00;100969.53;4966754;28;20071;-73
2022/08/25 01:19:15;;;;;;;25.02;19.98;;;;;;;18.24;100.00;100969.41;4965071;28;20032;-72
2022/08/25 01:21:46;;;;;;;28.67;19.88;;;;;;;18.28;100.00;100969.22;4967643;28;20027;-72
2022/08/25 01:24:23;;;;;;;20.85;18.42;;;;;;;18.32;100.00;100970.91;4965505;28;20123;-73
2022/08/25 01:26:48;;;;;;;24.35;19.58;;;;;;;18.35;100.00;100976.13;4964884;28;20544;-73
2022/08/25 01:29:19;;;;;;;21.52;18.52;;;;;;;18.38;100.00;100976.03;4967539;28;20167;-73
2022/08/25 01:31:46;;;;;;;28.60;19.23;;;;;;;18.39;100.00;100972.47;4960471;28;20035;-73
2022/08/25 01:34:12;;;;;;;20.77;18.58;;;;;;;18.38;100.00;100981.38;4967347;28;20039;-73
2022/08/25 01:36:38;;;;;;;27.40;21.02;;;;;;;18.39;100.00;100971.56;4964913;28;20035;-73
2022/08/25 01:39:04;;;;;;;27.40;20.58;;;;;;;18.41;100.00;100975.06;4967567;28;20031;-73
2022/08/25 01:41:43;;;;;;;21.90;19.70;;;;;;;18.39;100.00;100977.81;4958673;28;20051;-73
2022/08/25 01:44:09;;;;;;;32.60;21.50;;;;;;;18.39;100.00;100977.81;4966110;28;20485;-73
2022/08/25 01:46:34;;;;;;;21.67;19.10;;;;;;;18.37;100.00;100974.31;4964293;28;20058;-73
2022/08/25 01:49:00;;;;;;;21.33;18.05;;;;;;;18.39;100.00;100977.81;4967267;28;20093;-73
2022/08/25 01:51:29;;;;;;;23.33;18.75;;;;;;;18.38;100.00;100977.84;4960736;28;20043;-73
2022/08/25 01:53:54;;;;;;;29.80;23.13;;;;;;;18.36;100.00;100977.88;4965649;28;20062;-73
2022/08/25 01:56:20;;;;;;;21.63;18.50;;;;;;;18.33;100.00;100971.75;4966039;28;20453;-73
2022/08/25 01:58:47;;;;;;;23.52;21.02;;;;;;;18.31;100.00;100974.50;4963689;28;20068;-73
2022/08/25 02:01:20;;;;;;;23.08;20.55;;;;;;;18.30;100.00;100972.72;4946182;28;20039;-73
2022/08/25 02:03:48;;;;;;;25.70;21.15;;;;;;;18.31;100.00;100974.50;4965186;28;20050;-73
2022/08/25 02:06:17;;;;;;;23.40;20.90;;;;;;;18.29;100.00;100971.00;4948910;28;20050;-73
2022/08/25 02:08:42;;;;;;;19.15;17.27;;;;;;;18.28;100.00;100974.56;4963576;28;20457;-73
2022/08/25 02:11:14;;;;;;;23.73;21.05;;;;;;;18.28;100.00;100971.91;4966738;28;20126;-73
2022/08/25 02:13:41;;;;;;;20.83;18.67;;;;;;;18.27;100.00;100974.63;4965158;28;20045;-73
2022/08/25 02:16:08;;;;;;;26.15;20.67;;;;;;;18.25;100.00;100966.66;4964635;28;20034;-73
2022/08/25 02:18:33;;;;;;;22.70;17.98;;;;;;;18.26;100.00;100964.84;4966644;28;20026;-73
2022/08/25 02:20:58;;;;;;;23.70;19.15;;;;;;;18.24;100.00;100967.59;4963723;28;20548;-73
2022/08/25 02:23:24;;;;;;;21.70;19.05;;;;;;;18.25;100.00;100963.97;4966006;28;20043;-73
2022/08/25 02:25:49;;;;;;;22.65;17.38;;;;;;;18.27;100.00;100966.63;4947180;28;20043;-73
2022/08/25 02:28:15;;;;;;;27.58;18.85;;;;;;;18.28;100.00;100971.91;4947726;28;20039;-73
2022/08/25 02:30:41;;;;;;;30.50;22.02;;;;;;;18.26;100.00;100960.41;4964619;28;20038;-73
2022/08/25 02:33:08;;;;;;;21.20;18.90;;;;;;;18.20;100.00;100963.25;4962988;28;20394;-73
2022/08/25 02:35:34;;;;;;;26.25;20.23;;;;;;;18.21;100.00;100967.69;4963362;28;20458;-73
2022/08/25 02:37:59;;;;;;;29.70;21.65;;;;;;;18.23;100.00;100960.47;4961878;28;20105;-73
2022/08/25 02:40:25;;;;;;;28.55;22.58;;;;;;;18.25;100.00;100957.78;4964875;28;20169;-73
2022/08/25 02:42:50;;;;;;;28.17;21.63;;;;;;;18.24;100.00;100961.38;4964538;28;20043;-73
2022/08/25 02:45:17;;;;;;;21.40;16.85;;;;;;;18.14;100.00;100952.78;4964123;28;20054;-73
2022/08/25 02:47:43;;;;;;;19.35;17.33;;;;;;;18.08;100.00;100951.16;4948905;28;20617;-73
2022/08/25 02:50:09;;;;;;;24.63;17.23;;;;;;;18.08;100.00;100955.63;4963111;28;20039;-73
2022/08/25 02:52:35;;;;;;;20.65;18.50;;;;;;;18.07;100.00;100954.72;4965362;28;20026;-73
2022/08/25 02:55:03;;;;;;;22.80;20.40;;;;;;;18.07;100.00;100953.88;4964011;28;20399;-73
2022/08/25 02:57:29;;;;;;;23.67;18.52;;;;;;;18.04;100.00;100954.84;4963937;28;20520;-73
2022/08/25 02:59:55;;;;;;;22.73;20.35;;;;;;;18.03;100.00;100958.44;4947094;28;20058;-73
2022/08/25 03:02:20;;;;;;;28.63;22.17;;;;;;;18.03;100.00;100952.22;4961939;28;20580;-73
2022/08/25 03:04:46;;;;;;;24.02;20.50;;;;;;;18.01;100.00;100956.72;4948525;28;20042;-73
2022/08/25 03:07:11;;;;;;;24.80;19.23;;;;;;;17.98;100.00;100956.84;4959982;28;20413;-73
2022/08/25 03:09:37;;;;;;;26.02;19.70;;;;;;;17.98;100.00;100954.16;4964035;28;20035;-73
2022/08/25 03:12:03;;;;;;;24.48;20.00;;;;;;;17.96;100.00;100949.72;4962605;28;20043;-73
2022/08/25 03:14:29;;;;;;;27.23;21.27;;;;;;;17.98;100.00;100943.47;4961662;28;20093;-73
2022/08/25 03:16:54;;;;;;;28.52;20.58;;;;;;;18.00;100.00;100942.50;4962347;28;20035;-73
2022/08/25 03:19:19;;;;;;;20.38;17.85;;;;;;;17.95;100.00;100945.31;4965564;28;20039;-73
2022/08/25 03:21:45;;;;;;;18.73;16.75;;;;;;;17.95;100.00;100944.44;4930389;28;20046;-73
2022/08/25 03:24:11;;;;;;;27.25;21.30;;;;;;;17.88;100.00;100943.75;4964125;28;20031;-73
2022/08/25 03:26:52;;;;;;;25.60;19.92;;;;;;;17.86;100.00;100940.22;4964083;28;20494;-73
2022/08/25 03:29:19;;;;;;;24.38;19.85;;;;;;;17.83;100.00;100935.00;4958593;28;20050;-73
2022/08/25 03:31:44;;;;;;;25.42;21.95;;;;;;;17.83;100.00;100935.00;4961772;28;20027;-73
2022/08/25 03:34:12;;;;;;;24.58;21.92;;;;;;;17.83;100.00;100935.00;4944999;28;20097;-73
2022/08/25 03:36:37;;;;;;;23.33;18.55;;;;;;;17.84;100.00;100936.75;4962363;28;20437;-73
2022/08/25 03:39:03;;;;;;;24.75;21.55;;;;;;;17.88;100.00;100938.41;4955106;28;20036;-73
2022/08/25 03:41:33;;;;;;;23.48;20.63;;;;;;;17.91;100.00;100934.75;4964262;28;20643;-73
2022/08/25 03:44:00;;;;;;;25.42;21.70;;;;;;;17.92;100.00;100936.50;4958559;28;20027;-73
2022/08/25 03:46:32;;;;;;;27.35;22.92;;;;;;;17.95;100.00;100939.97;4964220;28;20034;-73
2022/08/25 03:49:00;;;;;;;26.17;20.92;;;;;;;17.96;100.00;100941.72;4958199;28;20031;-73
2022/08/25 03:51:29;;;;;;;28.48;23.40;;;;;;;17.98;100.00;100943.47;4946673;28;20047;-73
2022/08/25 03:53:55;;;;;;;27.27;21.38;;;;;;;17.98;100.00;100941.69;4963676;28;20035;-73
2022/08/25 03:56:21;;;;;;;21.55;19.27;;;;;;;17.99;100.00;100945.22;4962279;28;20524;-73
2022/08/25 03:58:46;;;;;;;29.13;23.45;;;;;;;17.87;100.00;100941.13;4964715;28;20528;-73
2022/08/25 04:01:13;;;;;;;21.15;18.75;;;;;;;17.84;100.00;100938.53;4956812;28;20047;-73
2022/08/25 04:03:38;;;;;;;21.33;15.98;;;;;;;17.81;100.00;100936.81;4946567;28;20560;-73
2022/08/25 04:06:05;;;;;;;22.08;18.27;;;;;;;17.80;100.00;100928.88;4962980;28;20074;-73
2022/08/25 04:08:31;;;;;;;23.65;18.17;;;;;;;17.79;100.00;100937.75;4962323;28;20054;-73
2022/08/25 04:10:56;;;;;;;21.75;19.00;;;;;;;17.77;100.00;100944.97;4964329;28;20038;-73
2022/08/25 04:13:21;;;;;;;22.38;17.85;;;;;;;17.79;100.00;100941.34;4960928;28;20153;-73
2022/08/25 04:15:47;;;;;;;23.58;19.60;;;;;;;17.80;100.00;100943.09;4959157;28;20086;-73
2022/08/25 04:18:13;;;;;;;24.08;21.58;;;;;;;17.81;100.00;100944.84;4963645;28;20101;-74
2022/08/25 04:20:41;;;;;;;23.77;19.40;;;;;;;17.85;100.00;100938.50;4964106;28;20054;-73
2022/08/25 04:23:07;;;;;;;27.38;19.58;;;;;;;17.89;100.00;100945.50;4960342;28;20066;-73
2022/08/25 04:25:32;;;;;;;22.83;17.23;;;;;;;17.89;100.00;100940.16;4963947;28;20061;-73
2022/08/25 04:27:57;;;;;;;28.90;21.08;;;;;;;17.91;100.00;100945.44;4961091;28;20055;-73
2022/08/25 04:30:23;;;;;;;35.35;22.98;;;;;;;17.92;100.00;100945.41;4943142;28;20050;-73
2022/08/25 04:32:48;;;;;;;24.85;20.48;;;;;;;17.99;100.00;100947.88;4952532;28;20042;-73
2022/08/25 04:35:14;;;;;;;33.63;23.55;;;;;;;18.09;100.00;100942.22;4953349;28;20067;-73
2022/08/25 04:37:39;;;;;;;28.42;23.77;;;;;;;18.16;100.00;100942.91;4962083;28;20039;-74
2022/08/25 04:40:05;;;;;;;23.02;20.65;;;;;;;18.16;100.00;100948.25;4964639;28;20058;-74
2022/08/25 04:42:31;;;;;;;17.60;15.73;;;;;;;18.12;100.00;100946.59;4959584;28;20046;-74
2022/08/25 04:44:56;;;;;;;19.35;17.33;;;;;;;18.10;100.00;100945.75;4952166;28;20046;-73
2022/08/25 04:47:22;;;;;;;27.40;22.00;;;;;;;17.93;100.00;100944.47;4948631;28;20090;-73
2022/08/25 04:49:47;;;;;;;17.75;15.93;;;;;;;17.91;100.00;100942.78;4950182;28;20137;-73
2022/08/25 04:52:13;;;;;;;16.48;14.77;;;;;;;17.89;100.00;100940.16;4950765;28;20523;-73
2022/08/25 04:54:39;;;;;;;17.75;15.63;;;;;;;17.89;100.00;100939.28;4952218;28;20043;-73
2022/08/25 04:57:05;;;;;;;22.20;19.45;;;;;;;17.95;100.00;100939.97;4947929;28;20485;-73
2022/08/25 04:59:31;;;;;;;35.13;27.55;;;;;;;17.99;100.00;100943.41;4954013;28;20053;-73
2022/08/25 05:02:04;;;;;;;24.58;20.58;;;;;;;18.08;100.00;100944.97;4960125;28;20493;-73
2022/08/25 05:04:31;;;;;;;23.77;18.73;;;;;;;18.11;100.00;100947.53;4938155;29;20039;-73
2022/08/25 05:06:56;;;;;;;20.08;17.77;;;;;;;18.22;100.00;100956.06;4960928;28;20039;-73
2022/08/25 05:09:22;;;;;;;23.38;18.85;;;;;;;18.31;100.00;100942.44;4963613;28;20457;-73
2022/08/25 05:11:47;;;;;;;22.38;18.10;;;;;;;18.35;100.00;100946.75;4960051;28;20078;-73
2022/08/25 05:14:16;;;;;;;21.00;18.00;;;;;;;18.38;100.00;100957.34;4961735;28;20486;-73
2022/08/25 05:16:42;;;;;;;19.70;17.10;;;;;;;18.46;100.00;100957.09;4961907;28;20047;-73
2022/08/25 05:19:07;;;;;;;21.35;18.45;;;;;;;18.56;100.00;100960.34;4963323;28;20042;-73
2022/08/25 05:21:33;;;;;;;20.60;18.35;;;;;;;18.75;100.00;100958.84;4960526;28;20043;-73
2022/08/25 05:24:00;;;;;;;21.33;19.15;;;;;;;18.99;100.00;100961.63;4956993;28;20032;-73
2022/08/25 05:26:29;;;;;;;20.45;17.83;;;;;;;19.15;100.00;100956.59;4959936;28;20126;-73
2022/08/25 05:28:56;;;;;;;16.85;15.10;;;;;;;19.29;100.00;100954.34;4942901;28;20039;-73
2022/08/25 05:31:23;;;;;;;26.13;20.15;;;;;;;19.44;100.00;100953.78;4944047;28;20042;-73
2022/08/25 05:33:49;;;;;;;23.55;21.05;;;;;;;19.58;100.00;100955.97;4960490;28;20047;-73
2022/08/25 05:36:16;;;;;;;20.98;18.70;;;;;;;19.68;100.00;100946.69;4957588;28;20078;-73
2022/08/25 05:38:42;;;;;;;23.08;19.58;;;;;;;19.84;100.00;100946.13;4963135;28;20501;-73
2022/08/25 05:41:10;;;;;;;21.17;18.95;;;;;;;20.02;100.00;100945.41;4948539;28;20125;-73
2022/08/25 05:43:37;;;;;;;21.35;19.13;;;;;;;20.17;99.84;100945.72;4942420;28;20069;-73
2022/08/25 05:46:02;;;;;;;23.30;20.17;;;;;;;20.34;99.53;100945.94;4967183;28;20039;-73
2022/08/25 05:48:28;;;;;;;36.78;26.13;;;;;;;20.53;98.01;100938.00;4967379;28;20121;-73
2022/08/25 05:50:56;;;;;;;28.13;24.10;;;;;;;20.56;97.55;100928.06;4965239;28;20031;-73
2022/08/25 05:53:23;;;;;;;27.75;24.70;;;;;;;20.57;97.66;100932.50;4965025;28;20035;-73
2022/08/25 05:55:50;;;;;;;28.55;24.15;;;;;;;20.58;97.13;100928.00;4962206;28;20039;-73
2022/08/25 05:58:15;;;;;;;28.30;24.58;;;;;;;20.63;97.66;100931.38;4964616;28;20453;-73
2022/08/25 06:00:41;;;;;;;33.28;27.17;;;;;;;20.71;97.23;100929.25;4966593;28;20042;-73
2022/08/25 06:03:06;;;;;;;31.13;27.65;;;;;;;20.74;95.99;100928.25;4965219;28;20162;-73
2022/08/25 06:05:32;;;;;;;30.80;27.50;;;;;;;20.82;96.24;100931.47;4950050;28;20058;-73
2022/08/25 06:07:58;;;;;;;36.55;29.23;;;;;;;20.88;94.98;100931.22;4966448;28;20047;-73
2022/08/25 06:10:24;;;;;;;30.67;25.35;;;;;;;20.91;95.05;100933.78;4963170;28;20037;-73
2022/08/25 06:12:49;;;;;;;26.73;23.80;;;;;;;20.91;94.77;100936.47;4962120;28;20122;-74
2022/08/25 06:15:18;;;;;;;21.33;18.33;;;;;;;20.91;94.59;100931.09;4949461;28;20480;-74
2022/08/25 06:17:43;;;;;;;25.10;21.90;;;;;;;20.89;95.21;100935.66;4964558;28;20047;-74
2022/08/25 06:20:12;;;;;;;29.27;26.17;;;;;;;20.94;95.21;100930.09;4965149;28;20563;-74
2022/08/25 06:22:38;;;;;;;25.98;22.58;;;;;;;21.06;95.34;100931.34;4965780;28;20046;-74
2022/08/25 06:25:04;;;;;;;29.88;24.92;;;;;;;21.13;94.61;100930.16;4961250;28;20573;-74
2022/08/25 06:27:30;;;;;;;27.08;23.70;;;;;;;21.20;94.41;100937.00;4945205;28;20117;-73
2022/08/25 06:29:55;;;;;;;27.33;24.73;;;;;;;21.28;93.84;100934.84;4946423;28;20130;-74
2022/08/25 06:32:20;;;;;;;30.63;26.80;;;;;;;21.38;93.12;100936.22;4931518;28;20042;-73
2022/08/25 06:34:46;;;;;;;35.85;27.70;;;;;;;21.48;92.70;100936.66;4965231;28;20035;-73
2022/08/25 06:37:11;;;;;;;26.17;23.25;;;;;;;21.62;92.57;100942.31;4963907;28;20391;-73
2022/08/25 06:39:36;;;;;;;32.17;28.50;;;;;;;21.91;91.49;100940.09;4966224;28;20034;-74
2022/08/25 06:42:02;;;;;;;29.30;26.35;;;;;;;22.17;90.04;100940.66;4960404;28;20039;-74
2022/08/25 06:44:28;;;;;;;25.55;22.92;;;;;;;22.31;88.91;100928.31;4948497;28;20054;-73
2022/08/25 06:46:54;;;;;;;23.42;21.08;;;;;;;22.40;87.52;100936.88;4964284;28;20043;-73
2022/08/25 06:49:20;;;;;;;23.77;21.52;;;;;;;22.53;87.32;100932.63;4964328;28;20046;-73
2022/08/25 06:51:45;;;;;;;22.00;19.83;;;;;;;22.61;86.54;100932.25;4965119;28;20037;-74
2022/08/25 06:54:11;;;;;;;25.33;21.50;;;;;;;22.70;87.07;100935.38;4961559;28;20110;-74
2022/08/25 06:56:39;;;;;;;29.65;26.48;;;;;;;22.91;86.05;100932.53;4965093;28;20668;-74
2022/08/25 06:59:06;;;;;;;21.48;19.15;;;;;;;23.00;84.29;100932.09;4962035;28;20039;-74
2022/08/25 07:01:32;;;;;;;27.60;24.67;;;;;;;23.07;84.74;100933.50;4963814;28;20059;-74
2022/08/25 07:04:00;;;;;;;28.60;25.63;;;;;;;23.28;83.76;100930.66;4963432;28;20486;-73
2022/08/25 07:06:27;;;;;;;26.67;23.73;;;;;;;23.46;82.57;100928.81;4948533;28;20045;-74
2022/08/25 07:08:53;;;;;;;25.92;23.17;;;;;;;23.56;81.46;100938.13;4957688;28;20074;-74
2022/08/25 07:11:20;;;;;;;26.60;21.52;;;;;;;23.49;80.80;100940.28;4959341;28;20078;-74
2022/08/25 07:13:46;;;;;;;36.38;28.48;;;;;;;23.63;81.17;100931.44;4961988;28;20061;-74
2022/08/25 07:16:14;;;;;;;28.27;25.13;;;;;;;23.82;80.09;100934.94;4962115;28;20035;-74
2022/08/25 07:18:39;;;;;;;31.73;25.50;;;;;;;23.88;79.69;100931.03;4964296;28;20038;-74
2022/08/25 07:21:05;;;;;;;23.75;21.25;;;;;;;23.90;78.38;100929.13;4962066;28;20474;-74
2022/08/25 07:23:30;;;;;;;31.58;27.52;;;;;;;23.88;79.09;100920.25;4963892;28;20378;-74
2022/08/25 07:25:56;;;;;;;30.13;24.90;;;;;;;23.90;78.50;100920.16;4963145;28;20058;-74
2022/08/25 07:28:22;;;;;;;27.67;22.00;;;;;;;23.91;78.36;100914.66;4963674;28;20504;-74
2022/08/25 07:30:49;;;;;;;27.23;21.55;;;;;;;23.86;78.73;100914.06;4936541;28;20182;-74
2022/08/25 07:33:14;;;;;;;33.58;29.90;;;;;;;23.88;78.40;100919.38;4964920;28;20206;-74
2022/08/25 07:35:39;;;;;;;35.47;27.65;;;;;;;24.01;78.42;100917.72;4962117;28;20126;-74
2022/08/25 07:38:06;;;;;;;33.63;27.55;;;;;;;24.16;77.61;100913.31;4964774;28;20118;-74
2022/08/25 07:40:35;;;;;;;40.92;33.03;;;;;;;24.26;77.31;100906.41;4963359;28;20027;-73
2022/08/25 07:43:06;;;;;;;44.97;33.30;;;;;;;24.39;76.32;100902.06;4961674;28;20041;-73
2022/08/25 07:45:33;;;;;;;34.90;31.15;;;;;;;24.48;75.58;100914.19;4944727;28;20043;-73
2022/08/25 07:48:06;;;;;;;24.08;21.63;;;;;;;24.47;74.69;100907.91;4964332;28;20035;-73
2022/08/25 07:50:32;;;;;;;22.30;18.15;;;;;;;24.48;74.60;100908.78;4964016;28;20723;-73
2022/08/25 07:52:58;;;;;;;34.38;30.17;;;;;;;24.60;74.87;100907.19;4961354;28;20047;-73
2022/08/25 07:55:25;;;;;;;24.42;21.90;;;;;;;24.70;74.03;100902.97;4938424;28;20036;-73
2022/08/25 07:57:51;;;;;;;25.15;22.65;;;;;;;24.79;74.39;100906.97;4962855;28;20039;-73
2022/08/25 08:00:17;;;;;;;26.55;23.85;;;;;;;24.86;73.79;100905.63;4965161;28;20050;-74
2022/08/25 08:02:43;;;;;;;24.20;20.77;;;;;;;24.82;74.06;100913.06;4964048;28;20043;-73
2022/08/25 08:05:10;;;;;;;27.67;24.83;;;;;;;24.93;73.12;100910.56;4946127;28;20027;-73
2022/08/25 08:07:36;;;;;;;24.85;22.45;;;;;;;25.07;72.58;100904.38;4949003;28;20042;-74
2022/08/25 08:10:03;;;;;;;20.08;18.08;;;;;;;25.03;72.61;100902.78;4962645;28;20114;-73
2022/08/25 08:12:28;;;;;;;22.15;17.45;;;;;;;25.07;72.43;100911.56;4963349;28;20074;-73
2022/08/25 08:14:54;;;;;;;23.33;21.20;;;;;;;25.18;72.00;100900.13;4964549;28;20118;-73
2022/08/25 08:17:20;;;;;;;26.52;20.17;;;;;;;25.27;71.34;100895.06;4963149;28;20035;-73
2022/08/25 08:19:46;;;;;;;20.42;18.45;;;;;;;25.33;71.17;100907.31;4961113;28;20137;-73
2022/08/25 08:22:16;;;;;;;20.75;18.75;;;;;;;25.38;71.17;100898.91;4944419;28;20552;-73
2022/08/25 08:24:43;;;;;;;32.00;28.55;;;;;;;25.51;70.64;100900.75;4960838;28;20085;-73
2022/08/25 08:27:10;;;;;;;26.88;24.13;;;;;;;25.63;70.41;100906.38;4952664;28;20027;-73
2022/08/25 08:29:37;;;;;;;30.13;26.92;;;;;;;25.80;69.96;100901.59;4953645;28;20039;-73
2022/08/25 08:32:05;;;;;;;30.38;27.40;;;;;;;25.98;69.37;100893.31;4952658;28;20517;-73
2022/08/25 08:34:31;;;;;;;26.95;24.08;;;;;;;26.17;67.73;100893.88;4959733;28;20414;-73
2022/08/25 08:36:56;;;;;;;23.38;20.38;;;;;;;26.47;67.48;100883.81;4962948;28;20954;-74
2022/08/25 08:39:22;;;;;;;26.80;24.08;;;;;;;26.66;66.28;100879.75;4954961;28;20159;-73
2022/08/25 08:42:16;;;;;;;32.22;29.40;;;;;;;26.80;64.60;100875.25;4958103;28;20051;-73
2022/08/25 08:44:44;;;;;;;22.02;19.05;;;;;;;27.06;63.96;100881.56;4919323;28;20055;-73
2022/08/25 08:47:21;;;;;;;20.23;18.30;;;;;;;27.17;62.95;100872.69;4964314;28;20093;-74
2022/08/25 08:50:05;;;;;;;33.88;24.95;;;;;;;27.32;62.28;100867.06;4962867;28;20050;-73
2022/08/25 08:52:48;;;;;;;31.38;28.15;;;;;;;27.61;61.94;100865.97;4959504;28;20118;-73
2022/08/25 08:55:24;;;;;;;20.83;18.55;;;;;;;27.87;60.34;100858.69;4958550;28;20126;-74
2022/08/25 08:57:52;;;;;;;33.67;24.05;;;;;;;28.08;59.97;100865.22;4961800;28;20042;-74
2022/08/25 09:00:17;;;;;;;27.23;24.42;;;;;;;28.04;59.44;100852.88;4964086;28;20034;-73
2022/08/25 09:03:17;;;;;;;26.13;23.65;;;;;;;28.16;58.00;100853.81;4960627;28;20090;-73
2022/08/25 09:05:49;;;;;;;23.48;20.92;;;;;;;28.29;58.47;100859.19;4952232;28;20062;-73
2022/08/25 09:08:15;;;;;;;20.63;16.58;;;;;;;28.34;57.94;100855.13;4961088;28;20054;-73
2022/08/25 09:11:00;;;;;;;24.38;18.27;;;;;;;28.07;57.11;100849.94;4945213;28;20516;-73
2022/08/25 09:13:45;;;;;;;22.92;20.75;;;;;;;28.14;56.65;100837.66;4962367;28;20066;-73
2022/08/25 09:16:55;;;;;;;29.67;25.08;;;;;;;28.33;56.15;100830.84;4963969;28;20058;-73
2022/08/25 09:19:30;;;;;;;27.45;24.55;;;;;;;28.35;56.34;100835.16;4964344;28;20047;-73
2022/08/25 09:22:05;;;;;;;28.83;24.45;;;;;;;28.25;57.34;100834.13;4964741;28;20395;-73
2022/08/25 09:25:01;;;;;;;24.30;21.67;;;;;;;28.19;55.86;100831.84;4949367;28;20057;-73
2022/08/25 09:27:38;;;;;;;21.92;19.25;;;;;;;28.45;55.55;100829.06;4960923;28;20050;-73
2022/08/25 09:30:15;;;;;;;24.48;21.98;;;;;;;28.44;55.49;100833.63;4962783;28;20146;-73
2022/08/25 09:32:45;;;;;;;24.63;22.30;;;;;;;28.50;55.60;100822.28;4945653;29;20143;-73
2022/08/25 09:35:20;;;;;;;20.42;17.30;;;;;;;28.57;55.39;100819.97;4964253;28;20038;-73
2022/08/25 09:38:07;;;;;;;25.65;22.50;;;;;;;28.48;54.93;100824.28;4968360;28;20051;-74
2022/08/25 09:40:36;;;;;;;20.08;16.45;;;;;;;28.45;55.09;100820.91;4962951;28;20053;-74
2022/08/25 09:43:18;;;;;;;20.92;18.77;;;;;;;28.72;54.21;100826.06;4942403;29;20058;-73
2022/08/25 09:45:47;;;;;;;20.73;18.58;;;;;;;28.70;54.05;100823.47;4961120;28;20051;-73
2022/08/25 09:48:21;;;;;;;20.35;18.35;;;;;;;28.82;52.92;100824.38;4961682;28;20038;-74
2022/08/25 09:50:49;;;;;;;34.42;25.55;;;;;;;28.85;54.21;100824.13;4939398;28;20066;-73
2022/08/25 09:53:17;;;;;;;26.40;23.92;;;;;;;29.02;52.46;100826.34;4961705;28;20118;-73
2022/08/25 09:55:44;;;;;;;24.83;21.08;;;;;;;29.14;52.86;100821.84;4954824;28;20082;-73
2022/08/25 09:58:18;;;;;;;19.27;17.23;;;;;;;28.98;52.40;100821.31;4933960;28;20127;-73
2022/08/25 10:00:45;;;;;;;22.38;19.63;;;;;;;29.02;53.12;100822.78;4957372;28;20035;-74
2022/08/25 10:03:19;;;;;;;25.85;17.90;;;;;;;29.44;51.72;100821.22;4959505;28;20487;-73
2022/08/25 10:06:04;;;;;;;26.85;18.63;;;;;;;29.52;50.92;100804.28;4959739;28;20118;-73
2022/08/25 10:08:34;;;;;;;28.63;24.38;;;;;;;29.87;50.64;100797.84;4966407;28;20031;-75
2022/08/25 10:11:03;;;;;;;28.13;22.58;;;;;;;30.22;50.51;100792.16;4932379;28;20042;-74
2022/08/25 10:13:41;;;;;;;36.00;26.17;;;;;;;30.55;49.49;100790.31;4966604;28;20130;-73
2022/08/25 10:16:11;;;;;;;28.40;21.88;;;;;;;30.84;48.68;100790.53;4928523;28;20074;-74
2022/08/25 10:18:36;;;;;;;23.92;21.55;;;;;;;30.88;48.32;100789.25;4964121;28;20034;-73
2022/08/25 10:21:17;;;;;;;31.05;23.75;;;;;;;30.86;47.41;100788.50;4963710;28;20034;-74
2022/08/25 10:23:51;;;;;;;21.85;16.75;;;;;;;30.86;47.14;100780.34;4961377;28;20039;-73
2022/08/25 10:26:44;;;;;;;19.20;17.10;;;;;;;30.65;47.09;100780.31;4956568;28;20406;-74
2022/08/25 10:29:57;;;;;;;19.98;16.98;;;;;;;29.87;48.81;100770.66;4962644;28;20075;-73
2022/08/25 10:33:01;;;;;;;19.48;16.63;;;;;;;29.49;49.24;100766.47;4948376;28;20142;-73
2022/08/25 10:35:41;;;;;;;19.73;17.63;;;;;;;29.30;50.55;100763.56;4933048;28;20051;-73
2022/08/25 10:38:15;;;;;;;22.27;20.00;;;;;;;29.60;50.14;100762.88;4963411;28;20489;-73
2022/08/25 10:40:59;;;;;;;33.00;26.08;;;;;;;29.97;49.79;100749.81;4964327;28;20031;-73
2022/08/25 10:43:31;;;;;;;33.33;23.23;;;;;;;30.38;48.60;100752.78;4964148;28;20042;-74
2022/08/25 10:46:19;;;;;;;25.17;22.27;;;;;;;30.75;47.69;100744.97;4932644;28;20050;-74
2022/08/25 10:49:09;;;;;;;19.00;17.30;;;;;;;30.49;47.39;100742.66;4960778;28;20039;-73
2022/08/25 10:51:45;;;;;;;23.63;16.58;;;;;;;30.03;48.14;100738.44;4961927;28;20045;-74
2022/08/25 10:54:32;;;;;;;27.23;20.73;;;;;;;30.23;47.90;100734.00;4959399;28;20043;-73
2022/08/25 10:57:06;;;;;;;31.42;21.63;;;;;;;30.61;47.84;100737.16;4962759;28;20486;-73
2022/08/25 10:59:45;;;;;;;28.42;25.35;;;;;;;30.91;46.09;100723.56;4946887;28;20041;-74
2022/08/25 11:02:44;;;;;;;22.50;19.92;;;;;;;30.91;45.99;100729.03;4959052;28;20509;-74
2022/08/25 11:05:38;;;;;;;31.48;20.30;;;;;;;30.77;45.63;100722.03;4961808;28;20069;-74
2022/08/25 11:08:32;;;;;;;23.83;20.73;;;;;;;30.60;46.19;100716.34;4947503;28;20038;-74
2022/08/25 11:11:20;;;;;;;28.40;23.30;;;;;;;30.84;46.40;100714.25;4961329;28;20687;-74
2022/08/25 11:13:51;;;;;;;25.80;18.15;;;;;;;31.06;45.51;100710.44;4963613;28;20409;-74
2022/08/25 11:16:30;;;;;;;29.40;22.15;;;;;;;30.88;45.85;100712.94;4958857;28;20432;-74